createdAt,value
2019-03-09T00:00:22.352Z,61.04
2019-03-09T00:01:03.003Z,60.94
2019-03-09T00:01:43.790Z,61.01
2019-03-09T00:02:24.448Z,60.72
2019-03-09T00:03:05.046Z,61.33
2019-03-09T00:03:45.667Z,60.43
2019-03-09T00:04:26.289Z,60.82
2019-03-09T00:05:06.984Z,60.94
2019-03-09T00:05:47.626Z,60.85
2019-03-09T00:06:28.299Z,60.53
2019-03-09T00:07:08.894Z,60.91
2019-03-09T00:07:49.543Z,60.72
2019-03-09T00:08:30.175Z,60.75
2019-03-09T00:09:10.762Z,61.2
2019-03-09T00:09:51.356Z,60.91
2019-03-09T00:10:32.042Z,61.23
2019-03-09T00:11:12.704Z,60.91
2019-03-09T00:12:03.487Z,60.72
2019-03-09T00:12:44.070Z,60.91
2019-03-09T00:13:24.761Z,60.43
2019-03-09T00:14:05.350Z,60.91
2019-03-09T00:14:45.947Z,61.01
2019-03-09T00:15:26.541Z,60.82
2019-03-09T00:16:07.158Z,60.72
2019-03-09T00:16:47.766Z,60.91
2019-03-09T00:17:28.356Z,60.82
2019-03-09T00:18:08.957Z,60.63
2019-03-09T00:18:49.562Z,60.82
2019-03-09T00:19:30.162Z,60.91
2019-03-09T00:20:11.399Z,60.91
2019-03-09T00:20:52.744Z,60.82
2019-03-09T00:21:33.979Z,61.11
2019-03-09T00:22:14.875Z,61.01
2019-03-09T00:22:56.046Z,61.01
2019-03-09T00:23:36.680Z,60.82
2019-03-09T00:24:17.330Z,61.01
2019-03-09T00:24:57.926Z,60.53
2019-03-09T00:25:38.596Z,60.72
2019-03-09T00:26:19.212Z,60.43
2019-03-09T00:26:59.804Z,60.24
2019-03-09T00:27:40.422Z,60.63
2019-03-09T00:28:21.007Z,60.72
2019-03-09T00:29:01.600Z,60.34
2019-03-09T00:29:42.182Z,60.63
2019-03-09T00:30:22.814Z,60.72
2019-03-09T00:31:03.410Z,60.63
2019-03-09T00:31:44.012Z,60.53
2019-03-09T00:32:24.618Z,60.63
2019-03-09T00:33:05.222Z,60.63
2019-03-09T00:33:45.840Z,60.72
2019-03-09T00:34:26.447Z,60.24
2019-03-09T00:35:07.052Z,60.82
2019-03-09T00:35:47.673Z,60.82
2019-03-09T00:36:28.297Z,60.63
2019-03-09T00:37:08.922Z,60.43
2019-03-09T00:37:49.488Z,60.63
2019-03-09T00:38:30.088Z,60.14
2019-03-09T00:39:10.675Z,60.46
2019-03-09T00:39:51.285Z,60.14
2019-03-09T00:40:31.894Z,60.43
2019-03-09T00:41:12.492Z,60.43
2019-03-09T00:41:53.106Z,60.43
2019-03-09T00:42:33.714Z,60.34
2019-03-09T00:43:14.306Z,60.14
2019-03-09T00:43:54.945Z,60.14
2019-03-09T00:44:35.524Z,60.34
2019-03-09T00:45:16.103Z,60.24
2019-03-09T00:45:56.686Z,60.72
2019-03-09T00:46:37.295Z,60.53
2019-03-09T00:47:17.870Z,60.63
2019-03-09T00:47:58.464Z,60.63
2019-03-09T00:48:39.063Z,60.72
2019-03-09T00:49:19.708Z,60.53
2019-03-09T00:50:00.312Z,60.53
2019-03-09T00:50:40.890Z,60.43
2019-03-09T00:51:21.482Z,60.14
2019-03-09T00:52:02.079Z,60.34
2019-03-09T00:52:42.706Z,60.43
2019-03-09T00:53:23.299Z,60.34
2019-03-09T00:54:03.930Z,60.53
2019-03-09T00:54:44.541Z,60.43
2019-03-09T00:55:25.299Z,60.63
2019-03-09T00:56:06.320Z,60.63
2019-03-09T00:56:47.738Z,60.43
2019-03-09T00:57:28.392Z,60.24
2019-03-09T00:58:09.024Z,60.14
2019-03-09T00:58:49.626Z,60.82
2019-03-09T00:59:30.234Z,60.53
2019-03-09T01:00:10.830Z,60.91
2019-03-09T01:00:51.426Z,60.91
2019-03-09T01:01:32.060Z,60.82
2019-03-09T01:02:12.640Z,60.63
2019-03-09T01:02:53.235Z,60.53
2019-03-09T01:03:33.837Z,60.72
2019-03-09T01:04:14.422Z,60.72
2019-03-09T01:04:55.032Z,60.24
2019-03-09T01:05:35.632Z,60.24
2019-03-09T01:06:16.209Z,60.24
2019-03-09T01:06:56.793Z,60.14
2019-03-09T01:07:37.400Z,60.34
2019-03-09T01:08:18.023Z,60.14
2019-03-09T01:08:58.654Z,60.63
2019-03-09T01:09:39.252Z,60.43
2019-03-09T01:10:19.868Z,60.43
2019-03-09T01:11:00.465Z,60.53
2019-03-09T01:11:41.070Z,60.14
2019-03-09T01:12:21.672Z,60.53
2019-03-09T01:13:02.306Z,60.53
2019-03-09T01:13:42.918Z,60.63
2019-03-09T01:14:23.542Z,60.53
2019-03-09T01:15:04.128Z,59.76
2019-03-09T01:15:44.724Z,60.05
2019-03-09T01:16:25.310Z,60.05
2019-03-09T01:17:05.910Z,60.43
2019-03-09T01:17:46.493Z,60.72
2019-03-09T01:18:27.078Z,60.34
2019-03-09T01:19:07.684Z,59.86
2019-03-09T01:19:48.284Z,59.95
2019-03-09T01:20:28.905Z,59.76
2019-03-09T01:21:09.514Z,60.05
2019-03-09T01:21:50.113Z,60.63
2019-03-09T01:22:30.721Z,59.76
2019-03-09T01:23:11.327Z,59.95
2019-03-09T01:23:51.943Z,60.53
2019-03-09T01:24:32.564Z,60.72
2019-03-09T01:25:13.157Z,59.95
2019-03-09T01:25:53.757Z,60.05
2019-03-09T01:26:34.392Z,60.24
2019-03-09T01:27:14.992Z,60.34
2019-03-09T01:27:55.631Z,60.72
2019-03-09T01:28:36.194Z,60.72
2019-03-09T01:29:16.786Z,60.05
2019-03-09T01:29:57.376Z,59.95
2019-03-09T01:30:37.966Z,59.57
2019-03-09T01:31:18.626Z,60.43
2019-03-09T01:31:59.225Z,60.34
2019-03-09T01:32:39.820Z,60.53
2019-03-09T01:33:20.400Z,60.43
2019-03-09T01:34:00.988Z,60.05
2019-03-09T01:34:41.580Z,59.76
2019-03-09T01:35:22.164Z,59.66
2019-03-09T01:36:02.754Z,60.53
2019-03-09T01:36:43.338Z,60.72
2019-03-09T01:37:23.927Z,60.43
2019-03-09T01:38:04.525Z,60.53
2019-03-09T01:38:45.132Z,60.24
2019-03-09T01:39:25.756Z,60.05
2019-03-09T01:40:06.350Z,60.63
2019-03-09T01:40:46.942Z,59.76
2019-03-09T01:41:27.548Z,60.72
2019-03-09T01:42:08.149Z,60.43
2019-03-09T01:42:48.732Z,60.24
2019-03-09T01:43:29.320Z,59.76
2019-03-09T01:44:09.906Z,59.57
2019-03-09T01:44:50.494Z,60.05
2019-03-09T01:45:31.104Z,59.86
2019-03-09T01:46:11.690Z,59.76
2019-03-09T01:46:52.299Z,60.72
2019-03-09T01:47:32.904Z,60.72
2019-03-09T01:48:13.504Z,60.34
2019-03-09T01:48:54.108Z,59.76
2019-03-09T01:49:34.704Z,59.86
2019-03-09T01:50:15.293Z,60.05
2019-03-09T01:50:55.894Z,59.86
2019-03-09T01:51:36.500Z,60.43
2019-03-09T01:52:17.117Z,60.24
2019-03-09T01:52:57.706Z,60.34
2019-03-09T01:53:38.314Z,60.24
2019-03-09T01:54:18.912Z,59.86
2019-03-09T01:54:59.526Z,60.05
2019-03-09T01:55:40.122Z,60.05
2019-03-09T01:56:20.714Z,60.14
2019-03-09T01:57:01.304Z,60.34
2019-03-09T01:57:41.904Z,60.72
2019-03-09T01:58:22.492Z,59.95
2019-03-09T01:59:03.080Z,59.57
2019-03-09T01:59:43.708Z,59.66
2019-03-09T02:00:24.310Z,59.38
2019-03-09T02:01:04.903Z,59.09
2019-03-09T02:01:45.484Z,60.14
2019-03-09T02:02:26.096Z,59.76
2019-03-09T02:03:06.686Z,59.86
2019-03-09T02:03:47.276Z,59.86
2019-03-09T02:04:27.858Z,59.95
2019-03-09T02:05:08.476Z,60.14
2019-03-09T02:05:49.074Z,60.14
2019-03-09T02:06:29.652Z,59.76
2019-03-09T02:07:10.240Z,60.05
2019-03-09T02:07:50.828Z,59.76
2019-03-09T02:08:31.421Z,59.76
2019-03-09T02:09:12.034Z,59.66
2019-03-09T02:09:52.648Z,60.34
2019-03-09T02:10:33.260Z,60.72
2019-03-09T02:11:13.863Z,60.53
2019-03-09T02:11:54.460Z,59.95
2019-03-09T02:12:35.080Z,59.95
2019-03-09T02:13:15.658Z,60.05
2019-03-09T02:13:56.251Z,60.05
2019-03-09T02:14:36.835Z,59.86
2019-03-09T02:15:17.454Z,60.34
2019-03-09T02:15:58.056Z,59.95
2019-03-09T02:16:38.693Z,60.05
2019-03-09T02:17:19.288Z,59.57
2019-03-09T02:17:59.896Z,60.24
2019-03-09T02:18:40.506Z,59.47
2019-03-09T02:19:21.114Z,59.95
2019-03-09T02:20:01.700Z,59.76
2019-03-09T02:20:42.288Z,59.95
2019-03-09T02:21:22.883Z,59.66
2019-03-09T02:22:03.474Z,59.66
2019-03-09T02:22:44.098Z,59.86
2019-03-09T02:23:24.694Z,59.47
2019-03-09T02:24:05.286Z,59.66
2019-03-09T02:24:45.889Z,59.19
2019-03-09T02:25:26.476Z,59.38
2019-03-09T02:26:07.132Z,60.05
2019-03-09T02:26:47.711Z,59.86
2019-03-09T02:27:28.436Z,60.05
2019-03-09T02:28:09.037Z,59.76
2019-03-09T02:28:49.628Z,60.24
2019-03-09T02:29:30.222Z,60.05
2019-03-09T02:30:10.814Z,59.95
2019-03-09T02:30:51.407Z,60.24
2019-03-09T02:31:32.002Z,60.14
2019-03-09T02:32:12.586Z,60.72
2019-03-09T02:32:53.244Z,59.86
2019-03-09T02:33:33.835Z,59.76
2019-03-09T02:34:14.446Z,60.05
2019-03-09T02:34:55.022Z,59.57
2019-03-09T02:35:35.600Z,59.76
2019-03-09T02:36:16.196Z,60.05
2019-03-09T02:36:56.789Z,59.57
2019-03-09T02:37:37.403Z,59.86
2019-03-09T02:38:17.993Z,59.95
2019-03-09T02:38:58.599Z,59.57
2019-03-09T02:39:39.179Z,59.47
2019-03-09T02:40:19.782Z,60.14
2019-03-09T02:41:00.361Z,59.86
2019-03-09T02:41:40.951Z,59.57
2019-03-09T02:42:21.535Z,59.95
2019-03-09T02:43:02.155Z,59.57
2019-03-09T02:43:42.764Z,60.05
2019-03-09T02:44:23.368Z,59.86
2019-03-09T02:45:03.975Z,59.57
2019-03-09T02:45:44.578Z,59.66
2019-03-09T02:46:25.174Z,59.76
2019-03-09T02:47:05.780Z,59.57
2019-03-09T02:47:46.393Z,59.19
2019-03-09T02:48:26.971Z,59.66
2019-03-09T02:49:07.568Z,59.28
2019-03-09T02:49:48.160Z,59.38
2019-03-09T02:50:28.747Z,59.76
2019-03-09T02:51:09.334Z,59.66
2019-03-09T02:51:49.924Z,60.05
2019-03-09T02:52:30.516Z,59.86
2019-03-09T02:53:11.116Z,59.95
2019-03-09T02:53:51.746Z,59.47
2019-03-09T02:54:32.343Z,59.57
2019-03-09T02:55:12.938Z,59.95
2019-03-09T02:55:53.524Z,59.38
2019-03-09T02:56:34.105Z,59.47
2019-03-09T02:57:14.695Z,59.86
2019-03-09T02:57:55.282Z,59.86
2019-03-09T02:58:35.873Z,59.57
2019-03-09T02:59:16.454Z,59.66
2019-03-09T02:59:57.054Z,59.19
2019-03-09T03:00:37.637Z,59.28
2019-03-09T03:01:18.313Z,59.57
2019-03-09T03:01:58.913Z,60.05
2019-03-09T03:02:39.500Z,59.95
2019-03-09T03:03:20.090Z,60.05
2019-03-09T03:04:00.702Z,59.86
2019-03-09T03:04:41.323Z,59.95
2019-03-09T03:05:21.928Z,60.14
2019-03-09T03:06:02.517Z,59.95
2019-03-09T03:06:43.117Z,59.86
2019-03-09T03:07:23.720Z,59.76
2019-03-09T03:08:04.312Z,59.28
2019-03-09T03:08:44.932Z,59.38
2019-03-09T03:09:25.570Z,59.38
2019-03-09T03:10:06.122Z,59.28
2019-03-09T03:10:46.712Z,60.05
2019-03-09T03:11:27.302Z,59.57
2019-03-09T03:12:07.887Z,59.57
2019-03-09T03:12:48.496Z,59.28
2019-03-09T03:13:29.092Z,59.66
2019-03-09T03:14:09.718Z,59.57
2019-03-09T03:14:50.301Z,59.28
2019-03-09T03:15:30.890Z,59.28
2019-03-09T03:16:11.479Z,59.19
2019-03-09T03:16:52.075Z,59.66
2019-03-09T03:17:32.664Z,59.38
2019-03-09T03:18:13.294Z,59.28
2019-03-09T03:18:53.887Z,59.57
2019-03-09T03:19:34.493Z,59.28
2019-03-09T03:20:15.086Z,59.47
2019-03-09T03:20:55.670Z,59.28
2019-03-09T03:21:36.272Z,60.24
2019-03-09T03:22:16.868Z,59.38
2019-03-09T03:22:57.491Z,59.28
2019-03-09T03:23:38.097Z,59.57
2019-03-09T03:24:18.697Z,59.38
2019-03-09T03:24:59.301Z,59.76
2019-03-09T03:25:39.889Z,59.66
2019-03-09T03:26:20.491Z,59.47
2019-03-09T03:27:01.095Z,59.66
2019-03-09T03:27:41.737Z,59.47
2019-03-09T03:28:22.333Z,59.09
2019-03-09T03:29:02.917Z,59.38
2019-03-09T03:29:43.553Z,59.19
2019-03-09T03:30:24.125Z,59.38
2019-03-09T03:31:04.739Z,59.57
2019-03-09T03:31:45.327Z,59.28
2019-03-09T03:32:25.957Z,59.38
2019-03-09T03:33:06.557Z,59.47
2019-03-09T03:33:47.125Z,59.57
2019-03-09T03:34:27.705Z,59.66
2019-03-09T03:35:08.321Z,59.47
2019-03-09T03:35:48.902Z,59.57
2019-03-09T03:36:29.507Z,59.09
2019-03-09T03:37:10.107Z,59.47
2019-03-09T03:37:50.711Z,59.66
2019-03-09T03:38:31.299Z,59.57
2019-03-09T03:39:11.920Z,59.57
2019-03-09T03:39:52.515Z,59.47
2019-03-09T03:40:33.115Z,59.09
2019-03-09T03:41:13.708Z,59.47
2019-03-09T03:41:54.331Z,59.66
2019-03-09T03:42:34.930Z,59.38
2019-03-09T03:43:16.257Z,59.28
2019-03-09T03:43:56.141Z,59.66
2019-03-09T03:44:36.729Z,59.38
2019-03-09T03:45:17.345Z,59.38
2019-03-09T03:45:57.931Z,59.38
2019-03-09T03:46:38.541Z,58.99
2019-03-09T03:47:19.220Z,59.28
2019-03-09T03:47:59.811Z,59.16
2019-03-09T03:48:40.407Z,59.19
2019-03-09T03:49:21.012Z,59.38
2019-03-09T03:50:01.591Z,59.28
2019-03-09T03:50:42.206Z,59.38
2019-03-09T03:51:22.819Z,59.16
2019-03-09T03:52:03.413Z,59.09
2019-03-09T03:52:43.990Z,59.66
2019-03-09T03:53:24.582Z,59.57
2019-03-09T03:54:05.178Z,59.09
2019-03-09T03:54:45.764Z,58.87
2019-03-09T03:55:26.347Z,59.28
2019-03-09T03:56:06.929Z,59.09
2019-03-09T03:56:47.750Z,59.19
2019-03-09T03:57:28.125Z,59.57
2019-03-09T03:58:08.732Z,59.38
2019-03-09T03:58:49.335Z,58.77
2019-03-09T03:59:29.945Z,58.96
2019-03-09T04:00:10.549Z,58.99
2019-03-09T04:00:51.153Z,58.8
2019-03-09T04:01:31.733Z,58.96
2019-03-09T04:02:12.319Z,59.54
2019-03-09T04:02:52.907Z,59.25
2019-03-09T04:03:33.512Z,58.87
2019-03-09T04:04:14.094Z,59.47
2019-03-09T04:04:54.694Z,59.19
2019-03-09T04:05:35.293Z,59.09
2019-03-09T04:06:15.883Z,58.89
2019-03-09T04:06:56.477Z,58.96
2019-03-09T04:07:37.072Z,59.38
2019-03-09T04:08:17.664Z,59.44
2019-03-09T04:08:58.245Z,59.06
2019-03-09T04:09:38.845Z,59.16
2019-03-09T04:10:19.445Z,59.44
2019-03-09T04:11:00.052Z,59.47
2019-03-09T04:11:40.634Z,59.16
2019-03-09T04:12:21.221Z,59.66
2019-03-09T04:13:01.821Z,59.25
2019-03-09T04:13:42.405Z,59.38
2019-03-09T04:14:22.991Z,59.09
2019-03-09T04:15:03.593Z,59.25
2019-03-09T04:15:44.170Z,59.34
2019-03-09T04:16:24.775Z,59.34
2019-03-09T04:17:05.373Z,58.89
2019-03-09T04:17:45.966Z,58.96
2019-03-09T04:18:26.582Z,59.06
2019-03-09T04:19:07.174Z,58.96
2019-03-09T04:19:47.767Z,58.89
2019-03-09T04:20:28.351Z,58.77
2019-03-09T04:21:08.949Z,58.99
2019-03-09T04:21:49.526Z,59.44
2019-03-09T04:22:30.118Z,59.25
2019-03-09T04:23:10.720Z,58.77
2019-03-09T04:23:51.297Z,58.58
2019-03-09T04:24:31.884Z,58.99
2019-03-09T04:25:12.529Z,59.06
2019-03-09T04:25:53.124Z,59.16
2019-03-09T04:26:33.741Z,59.38
2019-03-09T04:27:14.398Z,59.25
2019-03-09T04:27:54.997Z,58.96
2019-03-09T04:28:35.633Z,58.99
2019-03-09T04:29:16.234Z,58.8
2019-03-09T04:29:56.818Z,58.96
2019-03-09T04:30:37.408Z,59.06
2019-03-09T04:31:17.993Z,58.8
2019-03-09T04:31:58.589Z,59.06
2019-03-09T04:32:39.180Z,58.87
2019-03-09T04:33:19.767Z,58.96
2019-03-09T04:34:00.361Z,58.87
2019-03-09T04:34:40.960Z,58.87
2019-03-09T04:35:21.553Z,58.96
2019-03-09T04:36:02.143Z,58.99
2019-03-09T04:36:42.758Z,58.87
2019-03-09T04:37:23.331Z,59.06
2019-03-09T04:38:03.927Z,58.96
2019-03-09T04:38:44.529Z,59.25
2019-03-09T04:39:25.118Z,59.25
2019-03-09T04:40:05.721Z,59.47
2019-03-09T04:40:46.296Z,59.06
2019-03-09T04:41:26.894Z,59.44
2019-03-09T04:42:07.477Z,58.77
2019-03-09T04:42:48.105Z,58.96
2019-03-09T04:43:28.703Z,58.89
2019-03-09T04:44:09.291Z,58.89
2019-03-09T04:44:49.913Z,59.09
2019-03-09T04:45:30.509Z,58.96
2019-03-09T04:46:11.115Z,59.06
2019-03-09T04:46:51.706Z,58.89
2019-03-09T04:47:32.303Z,59.06
2019-03-09T04:48:12.893Z,59.06
2019-03-09T04:48:53.493Z,58.96
2019-03-09T04:49:34.119Z,58.87
2019-03-09T04:50:14.707Z,58.96
2019-03-09T04:50:55.294Z,59.16
2019-03-09T04:51:35.897Z,58.99
2019-03-09T04:52:16.482Z,59.34
2019-03-09T04:52:57.081Z,59.06
2019-03-09T04:53:37.693Z,58.96
2019-03-09T04:54:18.285Z,58.87
2019-03-09T04:54:58.865Z,58.87
2019-03-09T04:55:39.465Z,59.25
2019-03-09T04:56:20.062Z,58.89
2019-03-09T04:57:00.669Z,58.96
2019-03-09T04:57:41.267Z,58.87
2019-03-09T04:58:21.850Z,58.87
2019-03-09T04:59:02.425Z,58.67
2019-03-09T04:59:43.012Z,58.67
2019-03-09T05:00:23.640Z,58.39
2019-03-09T05:01:04.702Z,59.25
2019-03-09T05:01:45.347Z,58.96
2019-03-09T05:02:25.961Z,58.87
2019-03-09T05:03:06.546Z,58.39
2019-03-09T05:03:47.197Z,58.48
2019-03-09T05:04:27.791Z,58.39
2019-03-09T05:05:08.393Z,58.67
2019-03-09T05:05:48.967Z,58.96
2019-03-09T05:06:29.551Z,58.58
2019-03-09T05:07:10.159Z,58.96
2019-03-09T05:07:50.782Z,58.29
2019-03-09T05:08:31.375Z,58.39
2019-03-09T05:09:11.975Z,58.29
2019-03-09T05:09:52.567Z,58.39
2019-03-09T05:10:33.327Z,57.71
2019-03-09T05:11:13.937Z,58.39
2019-03-09T05:11:54.525Z,58.58
2019-03-09T05:12:35.128Z,59.25
2019-03-09T05:13:15.715Z,58.39
2019-03-09T05:13:56.305Z,58.48
2019-03-09T05:14:36.892Z,58.39
2019-03-09T05:15:17.479Z,58.67
2019-03-09T05:15:58.079Z,58.48
2019-03-09T05:16:38.675Z,58.48
2019-03-09T05:17:19.281Z,58.39
2019-03-09T05:17:59.893Z,58.39
2019-03-09T05:18:40.489Z,58.58
2019-03-09T05:19:21.086Z,58.29
2019-03-09T05:20:01.697Z,59.25
2019-03-09T05:20:42.278Z,59.16
2019-03-09T05:21:22.865Z,59.06
2019-03-09T05:22:03.449Z,59.25
2019-03-09T05:22:44.039Z,58.96
2019-03-09T05:23:24.627Z,58.96
2019-03-09T05:24:05.223Z,59.25
2019-03-09T05:24:45.817Z,58.39
2019-03-09T05:25:26.447Z,58.67
2019-03-09T05:26:07.031Z,58.48
2019-03-09T05:26:47.625Z,58.96
2019-03-09T05:27:28.216Z,59.25
2019-03-09T05:28:08.811Z,58.87
2019-03-09T05:28:49.400Z,58.87
2019-03-09T05:29:30.013Z,58.96
2019-03-09T05:30:10.615Z,59.06
2019-03-09T05:30:51.211Z,58.48
2019-03-09T05:31:31.797Z,59.25
2019-03-09T05:32:12.394Z,58.67
2019-03-09T05:32:52.990Z,58.96
2019-03-09T05:33:33.577Z,59.06
2019-03-09T05:34:14.171Z,59.25
2019-03-09T05:34:54.781Z,58.77
2019-03-09T05:35:35.381Z,58.87
2019-03-09T05:36:15.972Z,58.87
2019-03-09T05:36:56.567Z,59.06
2019-03-09T05:37:43.002Z,59.25
2019-03-09T05:38:17.749Z,58.48
2019-03-09T05:38:58.347Z,58.39
2019-03-09T05:39:38.939Z,58.67
2019-03-09T05:40:19.517Z,58.48
2019-03-09T05:41:00.183Z,58.48
2019-03-09T05:41:40.750Z,58.39
2019-03-09T05:42:21.343Z,58.87
2019-03-09T05:43:01.957Z,59.16
2019-03-09T05:43:42.519Z,58.58
2019-03-09T05:44:23.107Z,58.48
2019-03-09T05:45:03.700Z,58.29
2019-03-09T05:45:44.291Z,58.1
2019-03-09T05:46:24.891Z,58.58
2019-03-09T05:47:05.483Z,58.58
2019-03-09T05:47:46.080Z,58.58
2019-03-09T05:48:26.669Z,59.34
2019-03-09T05:49:07.275Z,58.96
2019-03-09T05:49:47.863Z,58.67
2019-03-09T05:50:28.433Z,58.58
2019-03-09T05:51:09.037Z,59.34
2019-03-09T05:51:49.627Z,58.96
2019-03-09T05:52:30.235Z,58.96
2019-03-09T05:53:10.819Z,58.48
2019-03-09T05:53:51.408Z,58.48
2019-03-09T05:54:31.995Z,58.58
2019-03-09T05:55:12.577Z,58.39
2019-03-09T05:55:53.187Z,58.48
2019-03-09T05:56:33.784Z,58.61
2019-03-09T05:57:14.363Z,58.67
2019-03-09T05:57:54.969Z,58.39
2019-03-09T05:58:35.599Z,58.48
2019-03-09T05:59:16.185Z,58.67
2019-03-09T05:59:56.771Z,58.2
2019-03-09T06:00:37.359Z,58.58
2019-03-09T06:01:17.943Z,58.48
2019-03-09T06:01:58.547Z,58.77
2019-03-09T06:02:39.152Z,58.58
2019-03-09T06:03:19.734Z,58.29
2019-03-09T06:04:00.400Z,58.48
2019-03-09T06:04:40.907Z,58.67
2019-03-09T06:05:21.491Z,57.81
2019-03-09T06:06:02.073Z,57.9
2019-03-09T06:06:42.661Z,58.39
2019-03-09T06:07:23.254Z,58.48
2019-03-09T06:08:03.839Z,58.2
2019-03-09T06:08:44.435Z,58.1
2019-03-09T06:09:25.021Z,58.67
2019-03-09T06:10:05.649Z,58.48
2019-03-09T06:10:46.225Z,58.48
2019-03-09T06:11:26.842Z,58.58
2019-03-09T06:12:07.443Z,57.9
2019-03-09T06:12:48.035Z,57.81
2019-03-09T06:13:28.633Z,58.2
2019-03-09T06:14:09.225Z,57.62
2019-03-09T06:14:49.831Z,57.71
2019-03-09T06:15:30.432Z,58.2
2019-03-09T06:16:11.016Z,58.67
2019-03-09T06:16:51.634Z,58.48
2019-03-09T06:17:32.213Z,58.2
2019-03-09T06:18:12.812Z,58.29
2019-03-09T06:18:53.405Z,58.48
2019-03-09T06:19:34.005Z,58.58
2019-03-09T06:20:14.593Z,58.39
2019-03-09T06:20:55.217Z,58.87
2019-03-09T06:21:35.805Z,58.58
2019-03-09T06:22:16.401Z,58.67
2019-03-09T06:22:57.000Z,58.67
2019-03-09T06:23:37.589Z,58.77
2019-03-09T06:24:18.233Z,58.48
2019-03-09T06:24:58.831Z,58.58
2019-03-09T06:25:39.422Z,58.58
2019-03-09T06:26:20.017Z,59.25
2019-03-09T06:27:00.628Z,59.06
2019-03-09T06:27:41.219Z,58.96
2019-03-09T06:28:21.832Z,58.29
2019-03-09T06:29:02.419Z,58.1
2019-03-09T06:29:43.005Z,58.39
2019-03-09T06:30:23.589Z,58.48
2019-03-09T06:31:04.191Z,58.2
2019-03-09T06:31:46.114Z,58.48
2019-03-09T06:32:25.364Z,58.96
2019-03-09T06:33:05.950Z,58.58
2019-03-09T06:33:46.527Z,58.58
2019-03-09T06:34:27.113Z,58.58
2019-03-09T06:35:07.727Z,58.61
2019-03-09T06:35:48.316Z,58.39
2019-03-09T06:36:28.905Z,58.39
2019-03-09T06:37:09.495Z,58.29
2019-03-09T06:37:50.108Z,58.29
2019-03-09T06:38:30.696Z,58.58
2019-03-09T06:39:11.300Z,58.67
2019-03-09T06:39:51.901Z,58.77
2019-03-09T06:40:32.479Z,58.2
2019-03-09T06:41:13.066Z,58.48
2019-03-09T06:41:53.657Z,58.2
2019-03-09T06:42:34.235Z,58.2
2019-03-09T06:43:14.821Z,58.48
2019-03-09T06:43:55.410Z,58.48
2019-03-09T06:44:35.993Z,58.48
2019-03-09T06:45:16.605Z,58.51
2019-03-09T06:45:57.205Z,58.39
2019-03-09T06:46:37.816Z,58.48
2019-03-09T06:47:18.400Z,58.2
2019-03-09T06:47:58.989Z,58.39
2019-03-09T06:48:39.580Z,58.48
2019-03-09T06:49:20.184Z,58.58
2019-03-09T06:50:00.771Z,58.48
2019-03-09T06:50:41.375Z,58.48
2019-03-09T06:51:21.985Z,58.39
2019-03-09T06:52:02.579Z,58.39
2019-03-09T06:52:43.195Z,58.48
2019-03-09T06:53:23.793Z,58.48
2019-03-09T06:54:04.395Z,58.48
2019-03-09T06:54:44.991Z,58.77
2019-03-09T06:55:25.590Z,58.39
2019-03-09T06:56:06.202Z,58.48
2019-03-09T06:56:46.802Z,59.25
2019-03-09T06:57:27.395Z,59.06
2019-03-09T06:58:07.993Z,58.67
2019-03-09T06:58:48.590Z,58.2
2019-03-09T06:59:29.172Z,57.81
2019-03-09T07:00:09.759Z,58.39
2019-03-09T07:00:50.343Z,58.51
2019-03-09T07:01:30.937Z,58.32
2019-03-09T07:02:11.541Z,58.39
2019-03-09T07:02:52.126Z,58.51
2019-03-09T07:03:32.707Z,58.67
2019-03-09T07:04:13.295Z,57.71
2019-03-09T07:04:53.887Z,57.62
2019-03-09T07:05:34.474Z,58.67
2019-03-09T07:06:15.066Z,58.1
2019-03-09T07:06:55.662Z,57.9
2019-03-09T07:07:36.242Z,58
2019-03-09T07:08:16.833Z,57.9
2019-03-09T07:08:57.422Z,58.2
2019-03-09T07:09:38.007Z,58.2
2019-03-09T07:10:18.623Z,57.71
2019-03-09T07:10:59.217Z,58.61
2019-03-09T07:11:39.789Z,57.71
2019-03-09T07:12:20.383Z,57.71
2019-03-09T07:13:00.963Z,58
2019-03-09T07:13:41.563Z,57.71
2019-03-09T07:14:22.157Z,57.93
2019-03-09T07:15:02.753Z,57.62
2019-03-09T07:15:43.348Z,57.75
2019-03-09T07:16:23.947Z,57.9
2019-03-09T07:17:04.593Z,57.62
2019-03-09T07:17:45.181Z,57.71
2019-03-09T07:18:25.784Z,57.93
2019-03-09T07:19:06.377Z,57.81
2019-03-09T07:19:46.955Z,57.71
2019-03-09T07:20:27.553Z,58.2
2019-03-09T07:21:08.144Z,57.62
2019-03-09T07:21:48.750Z,58.48
2019-03-09T07:22:29.377Z,59.06
2019-03-09T07:23:10.015Z,58.13
2019-03-09T07:23:50.617Z,58.29
2019-03-09T07:24:31.194Z,58.61
2019-03-09T07:25:11.797Z,58.58
2019-03-09T07:25:52.389Z,57.9
2019-03-09T07:26:32.998Z,57.84
2019-03-09T07:27:13.589Z,57.71
2019-03-09T07:27:54.177Z,57.81
2019-03-09T07:28:34.775Z,57.81
2019-03-09T07:29:15.379Z,57.55
2019-03-09T07:31:35.862Z,57.26
2019-03-09T07:32:16.461Z,57.93
2019-03-09T07:32:57.065Z,57.65
2019-03-09T07:33:37.664Z,57.36
2019-03-09T07:34:18.247Z,57.26
2019-03-09T07:34:58.839Z,57.26
2019-03-09T07:35:39.465Z,57.45
2019-03-09T07:36:20.077Z,57.36
2019-03-09T07:37:00.658Z,57.45
2019-03-09T07:37:41.248Z,57.55
2019-03-09T07:38:21.843Z,56.98
2019-03-09T07:39:02.432Z,56.98
2019-03-09T07:39:43.047Z,56.98
2019-03-09T07:40:23.627Z,57.07
2019-03-09T07:41:04.213Z,57.17
2019-03-09T07:41:44.799Z,57.17
2019-03-09T07:42:25.385Z,56.88
2019-03-09T07:43:05.993Z,57.07
2019-03-09T07:43:46.551Z,57.07
2019-03-09T07:44:27.139Z,56.88
2019-03-09T07:45:07.727Z,56.88
2019-03-09T07:45:48.317Z,56.98
2019-03-09T07:46:29.161Z,56.98
2019-03-09T07:47:09.754Z,56.88
2019-03-09T07:47:50.343Z,56.78
2019-03-09T07:48:30.943Z,56.88
2019-03-09T07:49:11.527Z,57.07
2019-03-09T07:49:52.979Z,56.88
2019-03-09T07:50:33.567Z,56.88
2019-03-09T07:51:14.160Z,56.98
2019-03-09T07:51:54.747Z,57.07
2019-03-09T07:52:35.333Z,57.07
2019-03-09T07:53:15.955Z,56.98
2019-03-09T07:53:56.576Z,57.07
2019-03-09T07:54:37.206Z,56.68
2019-03-09T07:55:17.803Z,57.07
2019-03-09T07:55:58.402Z,56.78
2019-03-09T07:56:38.997Z,56.98
2019-03-09T07:57:19.592Z,57.07
2019-03-09T07:58:00.219Z,56.98
2019-03-09T07:58:40.815Z,57.36
2019-03-09T07:59:21.411Z,56.98
2019-03-09T08:00:01.992Z,56.98
2019-03-09T08:00:42.567Z,57.26
2019-03-09T08:01:23.985Z,56.88
2019-03-09T08:02:03.741Z,56.59
2019-03-09T08:02:44.331Z,56.78
2019-03-09T08:03:24.944Z,56.59
2019-03-09T08:04:05.581Z,57.07
2019-03-09T08:04:46.193Z,56.78
2019-03-09T08:05:26.793Z,56.59
2019-03-09T08:06:07.391Z,56.4
2019-03-09T08:06:47.992Z,56.59
2019-03-09T08:07:28.585Z,56.59
2019-03-09T08:08:09.181Z,56.4
2019-03-09T08:08:49.816Z,56.21
2019-03-09T08:09:30.400Z,56.59
2019-03-09T08:10:11.000Z,56.59
2019-03-09T08:10:51.596Z,56.68
2019-03-09T08:11:32.241Z,56.4
2019-03-09T08:12:12.854Z,56.3
2019-03-09T08:12:53.469Z,56.3
2019-03-09T08:13:34.071Z,56.3
2019-03-09T08:14:14.661Z,55.91
2019-03-09T08:14:55.405Z,56.4
2019-03-09T08:15:36.062Z,56.3
2019-03-09T08:16:16.683Z,56.01
2019-03-09T08:16:57.296Z,56.88
2019-03-09T08:17:37.933Z,56.4
2019-03-09T08:18:18.535Z,56.59
2019-03-09T08:18:59.135Z,56.59
2019-03-09T08:19:39.727Z,56.21
2019-03-09T08:20:20.321Z,56.59
2019-03-09T08:21:00.929Z,56.49
2019-03-09T08:21:44.749Z,57.17
2019-03-09T08:22:25.343Z,56.01
2019-03-09T08:23:05.994Z,56.3
2019-03-09T08:23:46.600Z,56.49
2019-03-09T08:24:27.952Z,56.3
2019-03-09T08:25:15.241Z,56.4
2019-03-09T08:25:55.846Z,56.4
2019-03-09T08:26:38.844Z,56.4
2019-03-09T08:27:19.674Z,55.91
2019-03-09T08:28:00.537Z,56.21
2019-03-09T08:28:41.167Z,56.49
2019-03-09T08:29:21.825Z,56.3
2019-03-09T08:30:02.832Z,55.91
2019-03-09T08:30:43.437Z,56.21
2019-03-09T08:31:25.781Z,56.4
2019-03-09T08:32:06.480Z,56.4
2019-03-09T08:32:47.153Z,55.82
2019-03-09T08:33:28.393Z,55.91
2019-03-09T08:34:09.377Z,55.73
2019-03-09T08:34:52.053Z,55.73
2019-03-09T08:35:32.647Z,55.73
2019-03-09T08:36:13.273Z,55.82
2019-03-09T08:36:53.864Z,55.91
2019-03-09T08:37:34.477Z,55.91
2019-03-09T08:38:15.067Z,55.73
2019-03-09T08:38:55.676Z,55.73
2019-03-09T08:39:36.346Z,55.44
2019-03-09T08:40:16.948Z,55.82
2019-03-09T08:40:57.527Z,55.73
2019-03-09T08:41:38.139Z,56.11
2019-03-09T08:42:18.729Z,55.73
2019-03-09T08:42:59.336Z,55.73
2019-03-09T08:43:39.943Z,55.73
2019-03-09T08:44:20.533Z,55.91
2019-03-09T08:45:01.116Z,55.63
2019-03-09T08:45:41.794Z,55.63
2019-03-09T08:46:22.435Z,55.82